Time;durP1;ratioP1;P1;durP2;ratioP2;P2;SDS_P1;SDS_P2;PMS_P1;PMS_P2;Temp;Humidity;BMP_temperature;BMP_pressure;BME280_temperature;BME280_humidity;BME280_pressure;Samples;Min_cycle;Max_cycle;Signal;HPM_P1;HPM_P2
2021/08/06 00:00:12;;;;;;;;;;;;;;;21.97;50.99;94986.34;1044950;28;1181;-72
2021/08/06 00:00:42;;;;;;;;;;;;;;;21.97;51.30;94989.75;1045157;28;1458;-71
2021/08/06 00:01:14;;;;;;;;;;;;;;;21.96;50.91;94988.22;1045945;28;1175;-70
2021/08/06 00:01:44;;;;;;;;;;;;;;;21.96;51.02;94993.47;1045047;28;1174;-73
2021/08/06 00:02:15;;;;;;;;;;;;;;;21.96;50.98;94985.56;1046642;28;1178;-70
2021/08/06 00:02:45;;;;;;;;;;;;;;;21.97;50.88;94986.34;1045186;28;1174;-71
2021/08/06 00:03:16;;;;;;;;;;;;;;;21.95;51.12;94984.00;1041434;28;1026;-72
2021/08/06 00:03:46;;;;;;;;;;;;;;;21.96;50.76;94990.06;1035898;28;2342;-72
2021/08/06 00:04:16;;;;;;;;;;;;;;;21.95;51.18;94986.63;1030538;28;2401;-72
2021/08/06 00:04:46;;;;;;;;;;;;;;;21.96;50.80;94990.06;1024976;28;955;-71
2021/08/06 00:05:17;;;;;;;;;;;;;;;21.96;51.13;94985.56;1024855;28;1829;-70
2021/08/06 00:05:47;;;;;;;;;;;;;;;21.96;50.79;94987.41;1031487;28;2409;-70
2021/08/06 00:06:17;;;;;;;;;;;;;;;21.96;50.93;94990.84;1037580;28;1508;-70
2021/08/06 00:06:48;;;;;;;;;;;;;;;21.97;50.85;94984.47;1040530;28;1617;-71
2021/08/06 00:07:18;;;;;;;;;;;;;;;21.95;50.80;94989.28;1043939;28;1616;-71
2021/08/06 00:07:48;;;;;;;;;;;;;;;21.96;50.91;94990.06;1045559;28;1596;-72
2021/08/06 00:08:18;;;;;;;;;;;;;;;21.95;50.89;94986.63;1046548;28;1548;-72
2021/08/06 00:08:49;;;;;;;;;;;;;;;21.96;50.98;94985.56;1045960;28;1544;-71
2021/08/06 00:09:19;;;;;;;;;;;;;;;21.96;51.30;94982.13;1046346;28;2216;-72
2021/08/06 00:09:49;;;;;;;;;;;;;;;21.96;51.01;94984.78;1045749;28;1036;-70
2021/08/06 00:10:20;;;;;;;;;;;;;;;21.96;51.10;94982.13;1048195;28;1418;-71
2021/08/06 00:10:50;;;;;;;;;;;;;;;21.96;51.20;94980.28;1044854;28;1411;-70
2021/08/06 00:11:24;;;;;;;;;;;;;;;21.95;51.27;94981.34;1042879;28;1119;-71
2021/08/06 00:11:57;;;;;;;;;;;;;;;21.95;50.81;94978.72;1042564;28;1199;-72
2021/08/06 00:12:28;;;;;;;;;;;;;;;21.94;51.01;94979.81;1039602;28;1405;-70
2021/08/06 00:12:58;;;;;;;;;;;;;;;21.96;51.25;94982.13;1042910;28;1278;-70
2021/08/06 00:13:29;;;;;;;;;;;;;;;21.96;51.02;94987.41;1040996;28;1162;-71
2021/08/06 00:13:59;;;;;;;;;;;;;;;21.95;51.20;94978.72;1036377;28;1338;-71
2021/08/06 00:14:29;;;;;;;;;;;;;;;21.95;51.15;94972.69;1039528;28;2329;-71
2021/08/06 00:14:59;;;;;;;;;;;;;;;21.96;51.14;94977.66;1036166;28;1295;-72
2021/08/06 00:15:30;;;;;;;;;;;;;;;21.96;51.25;94979.50;1044299;28;1565;-71
2021/08/06 00:16:00;;;;;;;;;;;;;;;21.95;51.07;94980.59;1046437;28;1486;-72
2021/08/06 00:16:31;;;;;;;;;;;;;;;21.95;50.64;94975.31;1036502;28;1169;-71
2021/08/06 00:17:01;;;;;;;;;;;;;;;21.96;51.25;94979.50;1042665;28;1547;-72
2021/08/06 00:17:31;;;;;;;;;;;;;;;21.96;51.16;94982.13;1041644;28;801;-70
2021/08/06 00:18:01;;;;;;;;;;;;;;;21.95;50.86;94977.97;1044453;28;2426;-69
2021/08/06 00:18:32;;;;;;;;;;;;;;;21.95;51.03;94980.59;1045226;28;1206;-71
2021/08/06 00:19:02;;;;;;;;;;;;;;;21.94;51.20;94974.53;1047846;28;1143;-72
2021/08/06 00:19:33;;;;;;;;;;;;;;;21.95;51.34;94978.72;1045794;28;2584;-70
2021/08/06 00:20:05;;;;;;;;;;;;;;;21.96;51.29;94976.88;1047068;28;1185;-69
2021/08/06 00:20:35;;;;;;;;;;;;;;;21.94;51.16;94973.75;1045419;28;761;-69
2021/08/06 00:21:06;;;;;;;;;;;;;;;21.94;51.23;94974.53;1045313;28;1190;-72
2021/08/06 00:21:36;;;;;;;;;;;;;;;21.95;50.96;94978.72;1045061;28;1471;-72
2021/08/06 00:22:07;;;;;;;;;;;;;;;21.95;51.29;94981.34;1040993;28;1176;-71
2021/08/06 00:22:37;;;;;;;;;;;;;;;21.95;51.06;94975.31;1036854;28;1315;-72
2021/08/06 00:23:07;;;;;;;;;;;;;;;21.94;51.29;94979.03;1036307;28;1195;-72
2021/08/06 00:23:37;;;;;;;;;;;;;;;21.95;51.39;94978.72;1040329;28;1206;-72
2021/08/06 00:24:08;;;;;;;;;;;;;;;21.95;51.17;94977.97;1037705;28;1203;-72
2021/08/06 00:24:38;;;;;;;;;;;;;;;21.94;51.16;94976.38;1030131;28;2464;-71
2021/08/06 00:25:09;;;;;;;;;;;;;;;21.93;51.28;94975.59;1039878;28;1066;-69
2021/08/06 00:25:39;;;;;;;;;;;;;;;21.95;51.09;94975.31;1040414;28;1304;-70
2021/08/06 00:26:09;;;;;;;;;;;;;;;21.94;51.02;94981.66;1042120;28;1304;-72
2021/08/06 00:26:40;;;;;;;;;;;;;;;21.95;50.96;94978.72;1045007;28;865;-72
2021/08/06 00:27:10;;;;;;;;;;;;;;;21.93;51.12;94975.59;1048791;28;1226;-72
2021/08/06 00:27:40;;;;;;;;;;;;;;;21.94;51.36;94974.53;1042453;28;1384;-71
2021/08/06 00:28:11;;;;;;;;;;;;;;;21.95;51.22;94973.44;1045164;28;1160;-71
2021/08/06 00:28:41;;;;;;;;;;;;;;;21.95;51.28;94975.31;1044854;28;1419;-72
2021/08/06 00:29:11;;;;;;;;;;;;;;;21.94;51.16;94974.53;1040575;28;1962;-72
2021/08/06 00:29:42;;;;;;;;;;;;;;;21.94;51.35;94974.53;1043351;28;2312;-72
2021/08/06 00:30:12;;;;;;;;;;;;;;;21.94;51.27;94971.91;1041012;28;1402;-70
2021/08/06 00:30:42;;;;;;;;;;;;;;;21.94;51.38;94971.91;1038228;28;1475;-72
2021/08/06 00:31:13;;;;;;;;;;;;;;;21.94;51.15;94966.63;1040005;28;1314;-72
2021/08/06 00:31:43;;;;;;;;;;;;;;;21.93;51.28;94978.25;1041161;28;1373;-69
2021/08/06 00:32:13;;;;;;;;;;;;;;;21.95;51.29;94970.03;1040885;28;1314;-71
2021/08/06 00:32:43;;;;;;;;;;;;;;;21.95;51.21;94972.69;1040891;28;1284;-69
2021/08/06 00:33:14;;;;;;;;;;;;;;;21.95;51.28;94964.75;1036484;28;1814;-73
2021/08/06 00:33:44;;;;;;;;;;;;;;;21.94;51.51;94979.03;1044882;28;909;-71
2021/08/06 00:34:15;;;;;;;;;;;;;;;21.94;51.16;94971.91;1048457;28;1150;-71
2021/08/06 00:34:45;;;;;;;;;;;;;;;21.93;51.44;94975.59;1044018;28;2272;-71
2021/08/06 00:35:15;;;;;;;;;;;;;;;21.94;51.08;94973.75;1048138;28;1413;-73
2021/08/06 00:35:45;;;;;;;;;;;;;;;21.95;51.21;94970.03;1044649;28;1483;-70
2021/08/06 00:36:16;;;;;;;;;;;;;;;21.94;51.34;94977.16;1045488;28;1237;-70
2021/08/06 00:36:46;;;;;;;;;;;;;;;21.94;51.06;94982.44;1042213;28;1443;-71
2021/08/06 00:37:16;;;;;;;;;;;;;;;21.95;51.38;94972.69;1040790;28;1367;-72
2021/08/06 00:37:46;;;;;;;;;;;;;;;21.94;51.36;94977.16;1044860;28;1646;-71
2021/08/06 00:38:17;;;;;;;;;;;;;;;21.93;51.02;94975.59;1044186;28;1480;-71
2021/08/06 00:38:47;;;;;;;;;;;;;;;21.94;51.11;94976.38;1043842;28;1204;-70
2021/08/06 00:39:17;;;;;;;;;;;;;;;21.94;51.31;94977.16;1047367;28;1678;-72
2021/08/06 00:39:48;;;;;;;;;;;;;;;21.94;51.25;94976.38;1043473;28;2288;-71
2021/08/06 00:40:20;;;;;;;;;;;;;;;21.93;50.97;94975.59;1044729;28;1201;-70
2021/08/06 00:40:50;;;;;;;;;;;;;;;21.94;51.22;94982.44;1043471;28;1393;-72
2021/08/06 00:41:21;;;;;;;;;;;;;;;21.93;51.26;94965.03;1042179;28;1020;-70
2021/08/06 00:41:51;;;;;;;;;;;;;;;21.94;51.34;94977.16;1042467;28;1541;-70
2021/08/06 00:42:21;;;;;;;;;;;;;;;21.93;51.14;94978.25;1042446;28;1207;-70
2021/08/06 00:42:52;;;;;;;;;;;;;;;21.94;51.22;94977.16;1043428;28;1788;-71
2021/08/06 00:43:22;;;;;;;;;;;;;;;21.95;51.46;94977.97;1047706;28;2232;-73
2021/08/06 00:43:52;;;;;;;;;;;;;;;21.94;51.31;94974.53;1042050;28;2312;-71
2021/08/06 00:44:22;;;;;;;;;;;;;;;21.94;51.13;94971.91;1045148;28;847;-72
2021/08/06 00:44:53;;;;;;;;;;;;;;;21.94;51.17;94974.53;1043969;28;2716;-71
2021/08/06 00:45:23;;;;;;;;;;;;;;;21.94;51.16;94977.16;1044251;28;1190;-72
2021/08/06 00:45:53;;;;;;;;;;;;;;;21.94;51.17;94977.16;1045376;28;1147;-70
2021/08/06 00:46:24;;;;;;;;;;;;;;;21.94;51.36;94977.16;1040120;28;1241;-69
2021/08/06 00:46:55;;;;;;;;;;;;;;;21.93;51.29;94978.25;1041043;28;1093;-70
2021/08/06 00:47:25;;;;;;;;;;;;;;;21.93;51.42;94980.88;1040957;28;1026;-71
2021/08/06 00:47:56;;;;;;;;;;;;;;;21.93;51.48;94975.59;1040955;28;1151;-70
2021/08/06 00:48:26;;;;;;;;;;;;;;;21.93;51.31;94975.59;1044997;28;1307;-71
2021/08/06 00:48:56;;;;;;;;;;;;;;;21.94;51.37;94979.03;1045390;28;1305;-70
2021/08/06 00:49:26;;;;;;;;;;;;;;;21.93;51.17;94978.25;1044065;28;2509;-71
2021/08/06 00:49:57;;;;;;;;;;;;;;;21.93;51.12;94975.59;1042791;28;2172;-69
2021/08/06 00:50:27;;;;;;;;;;;;;;;21.93;51.29;94977.47;1040322;28;1400;-71
2021/08/06 00:50:57;;;;;;;;;;;;;;;21.94;51.34;94969.25;1038768;28;1153;-70
2021/08/06 00:51:27;;;;;;;;;;;;;;;21.93;51.48;94969.56;1035765;28;1657;-71
2021/08/06 00:51:58;;;;;;;;;;;;;;;21.93;51.47;94970.31;1036267;28;1099;-71
2021/08/06 00:52:28;;;;;;;;;;;;;;;21.92;51.39;94974.06;1041121;28;811;-71
2021/08/06 00:52:58;;;;;;;;;;;;;;;21.93;51.12;94972.19;1034334;28;1401;-69
2021/08/06 00:53:29;;;;;;;;;;;;;;;21.93;51.18;94977.47;1034903;28;1402;-71
2021/08/06 00:53:59;;;;;;;;;;;;;;;21.93;51.46;94972.97;1036573;28;987;-70
2021/08/06 00:54:29;;;;;;;;;;;;;;;21.94;51.24;94973.75;1034577;28;2335;-71
2021/08/06 00:54:59;;;;;;;;;;;;;;;21.93;51.15;94970.31;1031943;28;2315;-72
2021/08/06 00:55:30;;;;;;;;;;;;;;;21.92;51.47;94971.41;1036477;28;2151;-70
2021/08/06 00:56:00;;;;;;;;;;;;;;;21.93;51.54;94975.59;1040599;28;1108;-72
2021/08/06 00:56:30;;;;;;;;;;;;;;;21.93;51.46;94970.31;1043479;28;1558;-71
2021/08/06 00:57:01;;;;;;;;;;;;;;;21.94;51.57;94973.75;1041654;28;1300;-70
2021/08/06 00:57:31;;;;;;;;;;;;;;;21.93;51.39;94972.19;1036697;28;1642;-71
2021/08/06 00:58:01;;;;;;;;;;;;;;;21.94;51.41;94971.91;1040564;28;1026;-70
2021/08/06 00:58:32;;;;;;;;;;;;;;;21.93;51.40;94970.31;1043378;28;1215;-72
2021/08/06 00:59:02;;;;;;;;;;;;;;;21.93;51.38;94975.59;1047554;28;1182;-72
2021/08/06 00:59:32;;;;;;;;;;;;;;;21.93;51.54;94972.97;1048914;28;752;-70
2021/08/06 01:00:03;;;;;;;;;;;;;;;21.93;51.22;94970.31;1043557;28;2274;-70
2021/08/06 01:00:34;;;;;;;;;;;;;;;21.93;51.46;94972.97;1042993;28;1292;-72
2021/08/06 01:01:04;;;;;;;;;;;;;;;21.93;51.53;94970.31;1044826;28;1668;-72
2021/08/06 01:01:34;;;;;;;;;;;;;;;21.93;51.31;94970.31;1044936;28;1113;-72
2021/08/06 01:02:12;;;;;;;;;;;;;;;21.94;51.23;94971.09;1045013;28;1179;-70
2021/08/06 01:02:51;;;;;;;;;;;;;;;21.93;51.04;94967.69;1040891;28;1026;-70
2021/08/06 01:03:23;;;;;;;;;;;;;;;21.95;51.22;94970.03;1038722;28;1168;-70
2021/08/06 01:04:11;;;;;;;;;;;;;;;21.94;51.42;94969.25;1037806;28;2694;-70
2021/08/06 01:04:50;;;;;;;;;;;;;;;21.93;51.45;94974.84;1036470;28;852;-71
2021/08/06 01:05:24;;;;;;;;;;;;;;;21.94;51.44;94971.09;1034383;28;2729;-72
2021/08/06 01:05:58;;;;;;;;;;;;;;;21.93;51.45;94970.31;1034913;28;2543;-72
2021/08/06 01:06:29;;;;;;;;;;;;;;;21.94;51.28;94971.09;1038482;28;1511;-71
2021/08/06 01:07:01;;;;;;;;;;;;;;;21.93;51.61;94962.41;1038214;28;1444;-72
2021/08/06 01:07:41;;;;;;;;;;;;;;;21.93;51.48;94967.69;1040025;28;1963;-70
2021/08/06 01:08:13;;;;;;;;;;;;;;;21.93;51.21;94969.56;1040316;28;1151;-71
2021/08/06 01:08:47;;;;;;;;;;;;;;;21.93;51.26;94972.97;1033736;28;1411;-71
2021/08/06 01:09:32;;;;;;;;;;;;;;;21.94;51.54;94971.09;1042414;28;1894;-72
2021/08/06 01:10:07;;;;;;;;;;;;;;;21.93;51.46;94970.31;1044027;28;1147;-71
2021/08/06 01:10:41;;;;;;;;;;;;;;;21.94;51.46;94973.75;1041407;28;2192;-70
2021/08/06 01:11:11;;;;;;;;;;;;;;;21.94;51.42;94971.91;1040201;28;1515;-71
2021/08/06 01:11:42;;;;;;;;;;;;;;;21.94;51.20;94971.91;1036742;28;1367;-70
2021/08/06 01:12:14;;;;;;;;;;;;;;;21.93;51.26;94970.31;1026790;28;1552;-71
2021/08/06 01:12:50;;;;;;;;;;;;;;;21.92;51.68;94974.06;1024742;28;1651;-72
2021/08/06 01:13:32;;;;;;;;;;;;;;;21.93;51.23;94970.31;1031658;28;840;-71
2021/08/06 01:14:14;;;;;;;;;;;;;;;21.94;51.38;94971.91;1035832;28;1189;-72
2021/08/06 01:14:46;;;;;;;;;;;;;;;21.93;51.28;94972.97;1038891;28;1576;-70
2021/08/06 01:15:18;;;;;;;;;;;;;;;21.93;51.54;94970.31;1033204;28;2284;-69
2021/08/06 01:15:48;;;;;;;;;;;;;;;21.93;51.44;94967.69;1032583;28;1245;-70
2021/08/06 01:16:19;;;;;;;;;;;;;;;21.93;51.48;94966.94;1035957;28;1325;-69
2021/08/06 01:16:49;;;;;;;;;;;;;;;21.93;51.37;94967.69;1032213;28;1291;-72
2021/08/06 01:17:20;;;;;;;;;;;;;;;21.93;51.66;94972.19;1028784;28;1164;-69
2021/08/06 01:17:51;;;;;;;;;;;;;;;21.93;51.29;94959.75;1032676;28;1653;-70
2021/08/06 01:18:25;;;;;;;;;;;;;;;21.93;51.32;94964.28;1032507;28;1162;-69
2021/08/06 01:19:18;;;;;;;;;;;;;;;21.92;51.18;94958.22;1028669;28;1435;-72
2021/08/06 01:19:52;;;;;;;;;;;;;;;21.93;51.46;94959.75;1029363;28;2647;-72
2021/08/06 01:20:23;;;;;;;;;;;;;;;21.94;51.30;94968.47;1032841;28;2639;-71
2021/08/06 01:20:54;;;;;;;;;;;;;;;21.93;51.58;94956.38;1036591;28;1117;-71
2021/08/06 01:21:24;;;;;;;;;;;;;;;21.93;51.32;94959.00;1032325;28;1250;-70
2021/08/06 01:22:00;;;;;;;;;;;;;;;21.93;51.22;94961.66;1032826;28;1173;-71
2021/08/06 01:22:33;;;;;;;;;;;;;;;21.93;51.47;94959.75;1032476;28;1348;-72
2021/08/06 01:23:15;;;;;;;;;;;;;;;21.93;51.26;94959.75;1032008;28;1191;-72
2021/08/06 01:23:45;;;;;;;;;;;;;;;21.93;51.26;94956.38;1039016;28;1230;-70
2021/08/06 01:24:17;;;;;;;;;;;;;;;21.93;51.23;94954.50;1038746;28;967;-72
2021/08/06 01:24:52;;;;;;;;;;;;;;;21.93;51.50;94959.00;1036247;28;1203;-70
2021/08/06 01:25:38;;;;;;;;;;;;;;;21.93;51.31;94957.13;1036235;28;2240;-71
2021/08/06 01:26:15;;;;;;;;;;;;;;;21.92;51.50;94968.78;1031138;28;1347;-72
2021/08/06 01:26:45;;;;;;;;;;;;;;;21.93;51.60;94959.75;1036206;28;1136;-70
2021/08/06 01:27:15;;;;;;;;;;;;;;;21.92;51.37;94952.94;1032495;28;1308;-72
2021/08/06 01:27:47;;;;;;;;;;;;;;;21.92;51.34;94952.94;1030596;28;1163;-71
2021/08/06 01:28:24;;;;;;;;;;;;;;;21.92;51.26;94955.59;1032636;28;1589;-71
2021/08/06 01:28:54;;;;;;;;;;;;;;;21.93;51.34;94954.50;1036922;28;2009;-72
2021/08/06 01:29:24;;;;;;;;;;;;;;;21.93;51.23;94957.13;1045070;28;1967;-72
2021/08/06 01:29:54;;;;;;;;;;;;;;;21.93;51.23;94961.66;1045001;28;1163;-72
2021/08/06 01:30:25;;;;;;;;;;;;;;;21.93;51.53;94954.50;1039738;28;2342;-69
2021/08/06 01:30:55;;;;;;;;;;;;;;;21.93;51.26;94954.50;1040649;28;1085;-70
2021/08/06 01:31:26;;;;;;;;;;;;;;;21.93;51.50;94953.72;1032515;28;1349;-70
2021/08/06 01:31:56;;;;;;;;;;;;;;;21.93;51.31;94959.00;1034997;28;1214;-71
2021/08/06 01:32:30;;;;;;;;;;;;;;;21.94;51.40;94957.91;1032616;28;884;-71
2021/08/06 01:33:00;;;;;;;;;;;;;;;21.94;51.18;94958.69;1033383;28;1210;-72
2021/08/06 01:33:30;;;;;;;;;;;;;;;21.93;51.34;94957.13;1039420;28;1448;-70
2021/08/06 01:34:01;;;;;;;;;;;;;;;21.93;51.51;94959.75;1041144;28;1140;-69
2021/08/06 01:34:31;;;;;;;;;;;;;;;21.92;51.33;94955.59;1043329;28;1716;-69
2021/08/06 01:35:01;;;;;;;;;;;;;;;21.92;51.25;94952.94;1045751;28;1442;-69
2021/08/06 01:35:32;;;;;;;;;;;;;;;21.93;51.50;94954.50;1038693;28;2185;-71
2021/08/06 01:36:02;;;;;;;;;;;;;;;21.92;51.29;94958.22;1041631;28;1355;-72
2021/08/06 01:36:32;;;;;;;;;;;;;;;21.93;51.25;94953.72;1040787;28;886;-72
2021/08/06 01:37:03;;;;;;;;;;;;;;;21.93;51.59;94962.41;1040351;28;1210;-72
2021/08/06 01:37:33;;;;;;;;;;;;;;;21.92;51.45;94952.94;1041475;28;1142;-72
2021/08/06 01:38:03;;;;;;;;;;;;;;;21.93;51.32;94954.50;1047870;28;1151;-70
2021/08/06 01:38:34;;;;;;;;;;;;;;;21.92;51.53;94955.59;1048795;28;1186;-70
2021/08/06 01:39:04;;;;;;;;;;;;;;;21.92;51.39;94960.84;1044679;28;1194;-71
2021/08/06 01:39:34;;;;;;;;;;;;;;;21.92;51.13;94958.22;1040665;28;1262;-69
2021/08/06 01:40:05;;;;;;;;;;;;;;;21.92;51.41;94952.94;1043583;28;1136;-72
2021/08/06 01:40:54;;;;;;;;;;;;;;;21.93;51.39;94959.00;1043654;28;2272;-70
2021/08/06 01:41:56;;;;;;;;;;;;;;;21.92;51.27;94958.22;1044489;28;796;-70
2021/08/06 01:42:45;;;;;;;;;;;;;;;21.92;51.17;94958.22;1032580;28;1168;-71
2021/08/06 01:43:22;;;;;;;;;;;;;;;21.93;51.25;94959.00;1028571;28;1747;-71
2021/08/06 01:44:02;;;;;;;;;;;;;;;21.94;51.22;94960.56;1041724;28;1167;-70
2021/08/06 01:44:34;;;;;;;;;;;;;;;21.93;51.34;94959.00;1038060;28;1440;-73
2021/08/06 01:45:06;;;;;;;;;;;;;;;21.93;51.46;94957.13;1038752;28;1393;-70
2021/08/06 01:45:38;;;;;;;;;;;;;;;21.92;51.51;94958.22;1037726;28;2163;-70
2021/08/06 01:46:31;;;;;;;;;;;;;;;21.92;51.61;94952.94;1043142;28;1342;-71
2021/08/06 01:47:07;;;;;;;;;;;;;;;21.92;51.23;94952.94;1032908;28;1392;-71
2021/08/06 01:47:45;;;;;;;;;;;;;;;21.92;51.19;94955.59;1036478;28;1367;-69
2021/08/06 01:48:16;;;;;;;;;;;;;;;21.92;51.25;94952.94;1039098;28;1362;-68
2021/08/06 01:48:47;;;;;;;;;;;;;;;21.93;51.51;94956.38;1042884;28;1341;-71
2021/08/06 01:49:18;;;;;;;;;;;;;;;21.93;51.82;94959.00;1033323;28;1910;-72
2021/08/06 01:49:58;;;;;;;;;;;;;;;21.93;51.74;94951.09;1036791;28;1136;-70
2021/08/06 01:50:30;;;;;;;;;;;;;;;21.92;51.76;94955.59;1037955;28;2283;-71
2021/08/06 01:51:00;;;;;;;;;;;;;;;21.93;51.61;94949.22;1035842;28;1468;-72
2021/08/06 01:51:32;;;;;;;;;;;;;;;21.93;51.51;94948.47;1036314;28;1210;-71
2021/08/06 01:52:06;;;;;;;;;;;;;;;21.93;51.52;94953.72;1030734;28;1168;-69
2021/08/06 01:52:49;;;;;;;;;;;;;;;21.93;51.66;94956.38;1029935;28;724;-72
2021/08/06 01:53:19;;;;;;;;;;;;;;;21.92;51.53;94950.31;1040434;28;1176;-71
2021/08/06 01:53:50;;;;;;;;;;;;;;;21.92;51.51;94955.59;1043500;28;1910;-70
2021/08/06 01:54:20;;;;;;;;;;;;;;;21.92;51.50;94952.94;1040721;28;1199;-72
2021/08/06 01:54:50;;;;;;;;;;;;;;;21.92;51.47;94947.66;1036607;28;1393;-70
2021/08/06 01:55:21;;;;;;;;;;;;;;;21.93;51.19;94954.50;1031752;28;2338;-73
2021/08/06 01:55:52;;;;;;;;;;;;;;;21.93;51.72;94949.22;1024936;28;1928;-71
2021/08/06 01:56:22;;;;;;;;;;;;;;;21.92;51.67;94946.88;1036541;28;1237;-72
2021/08/06 01:56:52;;;;;;;;;;;;;;;21.92;51.63;94947.66;1028732;28;1409;-72
2021/08/06 01:57:23;;;;;;;;;;;;;;;21.92;51.53;94947.66;1028720;28;1120;-70
2021/08/06 01:57:53;;;;;;;;;;;;;;;21.92;51.85;94944.25;1031745;28;1405;-69
2021/08/06 01:58:23;;;;;;;;;;;;;;;21.92;51.67;94950.31;1032602;28;1175;-70
2021/08/06 01:58:54;;;;;;;;;;;;;;;21.91;51.78;94946.09;1038271;28;1167;-70
2021/08/06 01:59:25;;;;;;;;;;;;;;;21.92;51.67;94945.03;1032651;28;2721;-70
2021/08/06 01:59:56;;;;;;;;;;;;;;;21.90;51.56;94947.19;1035887;28;2732;-69
2021/08/06 02:00:26;;;;;;;;;;;;;;;21.91;51.60;94946.09;1035452;28;2696;-72
2021/08/06 02:00:56;;;;;;;;;;;;;;;21.91;51.46;94943.47;1036855;28;1175;-71
2021/08/06 02:01:27;;;;;;;;;;;;;;;21.91;51.47;94945.34;1035165;28;1922;-71
2021/08/06 02:01:57;;;;;;;;;;;;;;;21.92;51.41;94942.38;1034059;28;1192;-70
2021/08/06 02:02:27;;;;;;;;;;;;;;;21.91;51.46;94940.81;1033290;28;1306;-71
2021/08/06 02:02:57;;;;;;;;;;;;;;;21.91;51.50;94946.09;1036125;28;1393;-69
2021/08/06 02:03:28;;;;;;;;;;;;;;;21.91;51.40;94948.72;1036539;28;962;-70
2021/08/06 02:03:58;;;;;;;;;;;;;;;21.92;51.52;94945.03;1035255;28;2345;-71
2021/08/06 02:04:28;;;;;;;;;;;;;;;21.91;51.52;94940.81;1035692;28;1276;-70
2021/08/06 02:04:58;;;;;;;;;;;;;;;21.92;51.41;94950.31;1034758;28;1384;-72
2021/08/06 02:05:29;;;;;;;;;;;;;;;21.91;51.37;94940.81;1031920;28;2678;-70
2021/08/06 02:05:59;;;;;;;;;;;;;;;21.91;51.35;94943.47;1034204;28;2739;-72
2021/08/06 02:06:29;;;;;;;;;;;;;;;21.92;51.33;94938.97;1035851;28;1505;-70
2021/08/06 02:07:00;;;;;;;;;;;;;;;21.91;51.58;94940.81;1032473;28;1195;-71
2021/08/06 02:07:30;;;;;;;;;;;;;;;21.91;51.52;94943.47;1032624;28;1200;-71
2021/08/06 02:08:01;;;;;;;;;;;;;;;21.92;51.44;94941.59;1036532;28;1089;-71
2021/08/06 02:08:31;;;;;;;;;;;;;;;21.92;51.40;94938.97;1040549;28;852;-72
2021/08/06 02:09:01;;;;;;;;;;;;;;;21.91;51.68;94935.53;1042861;28;1223;-71
2021/08/06 02:09:32;;;;;;;;;;;;;;;21.91;51.48;94940.81;1041448;28;1981;-72
2021/08/06 02:10:02;;;;;;;;;;;;;;;21.92;51.29;94934.47;1036310;28;1508;-72
2021/08/06 02:10:33;;;;;;;;;;;;;;;21.92;51.50;94931.06;1035270;28;2394;-72
2021/08/06 02:11:03;;;;;;;;;;;;;;;21.92;51.48;94937.13;1036784;28;2250;-71
2021/08/06 02:11:33;;;;;;;;;;;;;;;21.92;51.52;94938.97;1031137;28;1613;-71
2021/08/06 02:12:04;;;;;;;;;;;;;;;21.92;51.79;94937.13;1033391;28;1138;-71
2021/08/06 02:12:34;;;;;;;;;;;;;;;21.92;51.44;94938.97;1032279;28;1273;-71
2021/08/06 02:13:04;;;;;;;;;;;;;;;21.92;51.50;94939.75;1030351;28;1232;-69
2021/08/06 02:13:35;;;;;;;;;;;;;;;21.92;51.67;94942.38;1036594;28;800;-70
2021/08/06 02:14:06;;;;;;;;;;;;;;;21.91;51.45;94932.91;1035081;28;1261;-69
2021/08/06 02:14:36;;;;;;;;;;;;;;;21.93;51.61;94937.91;1032525;28;1069;-70
2021/08/06 02:15:07;;;;;;;;;;;;;;;21.92;51.54;94931.06;1039781;28;1203;-70
2021/08/06 02:15:39;;;;;;;;;;;;;;;21.92;51.89;94939.75;1039697;28;2622;-69
2021/08/06 02:16:09;;;;;;;;;;;;;;;21.92;51.55;94931.06;1031447;28;1351;-69
2021/08/06 02:16:40;;;;;;;;;;;;;;;21.92;51.48;94941.59;1027072;28;2303;-71
2021/08/06 02:17:11;;;;;;;;;;;;;;;21.92;51.70;94936.31;1030443;28;1169;-68
2021/08/06 02:17:41;;;;;;;;;;;;;;;21.92;51.41;94939.75;1028580;28;1350;-70
2021/08/06 02:18:11;;;;;;;;;;;;;;;21.92;51.54;94934.47;1035124;28;2429;-70
2021/08/06 02:18:41;;;;;;;;;;;;;;;21.91;51.49;94935.53;1036244;28;1649;-71
2021/08/06 02:19:12;;;;;;;;;;;;;;;21.92;51.76;94931.06;1036014;28;1081;-69
2021/08/06 02:19:42;;;;;;;;;;;;;;;21.91;51.71;94932.91;1032422;28;934;-70
2021/08/06 02:20:13;;;;;;;;;;;;;;;21.92;51.68;94937.13;1028701;28;1179;-72
2021/08/06 02:20:43;;;;;;;;;;;;;;;21.91;51.67;94935.53;1029278;28;2709;-72
2021/08/06 02:21:14;;;;;;;;;;;;;;;21.91;51.56;94932.91;1028265;28;1303;-71
2021/08/06 02:21:46;;;;;;;;;;;;;;;21.92;51.73;94937.13;1032760;28;1148;-69
2021/08/06 02:22:16;;;;;;;;;;;;;;;21.91;51.60;94935.53;1035348;28;1219;-70
2021/08/06 02:22:46;;;;;;;;;;;;;;;21.93;51.46;94927.34;1037365;28;2589;-71
2021/08/06 02:23:16;;;;;;;;;;;;;;;21.92;51.76;94936.31;1033395;28;2544;-71
2021/08/06 02:23:49;;;;;;;;;;;;;;;21.91;51.54;94930.25;1025272;28;2616;-69
2021/08/06 02:24:19;;;;;;;;;;;;;;;21.91;51.82;94930.25;1024433;28;2568;-71
2021/08/06 02:24:49;;;;;;;;;;;;;;;21.92;51.62;94929.19;1025977;28;2448;-69
2021/08/06 02:25:20;;;;;;;;;;;;;;;21.91;51.35;94927.63;1026641;28;2237;-70
2021/08/06 02:25:50;;;;;;;;;;;;;;;21.91;51.62;94935.53;1034443;28;2395;-70
2021/08/06 02:26:21;;;;;;;;;;;;;;;21.91;51.68;94929.50;1031019;28;2456;-71
2021/08/06 02:26:51;;;;;;;;;;;;;;;21.91;51.50;94929.50;1030210;28;2834;-71
2021/08/06 02:27:21;;;;;;;;;;;;;;;21.91;51.75;94925.00;1039679;28;2606;-71
2021/08/06 02:27:53;;;;;;;;;;;;;;;21.91;51.77;94932.91;1038052;28;2447;-71
2021/08/06 02:28:23;;;;;;;;;;;;;;;21.91;51.70;94930.25;1030369;28;2667;-71
2021/08/06 02:28:53;;;;;;;;;;;;;;;21.91;51.50;94925.00;1027226;28;2627;-70
2021/08/06 02:29:23;;;;;;;;;;;;;;;21.91;51.59;94924.22;1030069;28;2621;-70
2021/08/06 02:29:54;;;;;;;;;;;;;;;21.90;51.66;94923.44;1030909;28;2538;-72
2021/08/06 02:30:24;;;;;;;;;;;;;;;21.91;51.88;94925.00;1030466;28;2157;-71
2021/08/06 02:30:54;;;;;;;;;;;;;;;21.91;51.60;94924.22;1030142;28;2236;-70
2021/08/06 02:31:25;;;;;;;;;;;;;;;21.90;51.90;94926.09;1034880;28;2608;-70
2021/08/06 02:31:56;;;;;;;;;;;;;;;21.91;51.45;94929.50;1035213;28;2309;-71
2021/08/06 02:32:26;;;;;;;;;;;;;;;21.91;51.53;94919.72;1034806;28;2524;-69
2021/08/06 02:32:56;;;;;;;;;;;;;;;21.91;51.71;94925.00;1030398;28;2316;-69
2021/08/06 02:33:26;;;;;;;;;;;;;;;21.91;51.70;94929.50;1027564;28;2281;-71
2021/08/06 02:33:57;;;;;;;;;;;;;;;21.91;51.56;94922.34;1028459;28;1086;-71
2021/08/06 02:34:27;;;;;;;;;;;;;;;21.91;51.78;94922.34;1035036;28;2695;-70
2021/08/06 02:34:57;;;;;;;;;;;;;;;21.92;51.59;94923.13;1030343;28;2723;-69
2021/08/06 02:35:28;;;;;;;;;;;;;;;21.91;51.50;94924.22;1032361;28;2628;-71
2021/08/06 02:35:58;;;;;;;;;;;;;;;21.91;51.92;94922.34;1026361;28;2695;-72
2021/08/06 02:36:29;;;;;;;;;;;;;;;21.91;51.84;94922.34;1027485;28;2500;-71
2021/08/06 02:36:59;;;;;;;;;;;;;;;21.91;51.66;94918.94;1034541;28;1203;-71
2021/08/06 02:37:30;;;;;;;;;;;;;;;21.91;51.73;94919.72;1037769;28;2314;-70
2021/08/06 02:38:01;;;;;;;;;;;;;;;21.91;51.74;94918.94;1041046;28;2585;-70
2021/08/06 02:38:31;;;;;;;;;;;;;;;21.91;51.69;94922.34;1041634;28;2372;-70
2021/08/06 02:39:01;;;;;;;;;;;;;;;21.91;51.66;94925.00;1034624;28;1383;-71
2021/08/06 02:39:32;;;;;;;;;;;;;;;21.91;51.56;94921.59;1033315;28;2334;-69
2021/08/06 02:40:03;;;;;;;;;;;;;;;21.89;51.79;94921.88;1032711;28;2354;-73
2021/08/06 02:40:33;;;;;;;;;;;;;;;21.91;51.57;94926.88;1034035;28;2675;-72
2021/08/06 02:41:03;;;;;;;;;;;;;;;21.91;51.80;94925.00;1040375;28;2508;-72
2021/08/06 02:41:34;;;;;;;;;;;;;;;21.92;51.44;94920.50;1042658;28;1447;-71
2021/08/06 02:42:04;;;;;;;;;;;;;;;21.92;51.47;94928.41;1044122;28;2695;-71
2021/08/06 02:42:34;;;;;;;;;;;;;;;21.90;51.71;94920.81;1039527;28;2683;-73
2021/08/06 02:43:05;;;;;;;;;;;;;;;21.91;51.70;94924.22;1041326;28;1041;-70
2021/08/06 02:43:35;;;;;;;;;;;;;;;21.91;51.35;94927.63;1041323;28;2720;-71
2021/08/06 02:44:07;;;;;;;;;;;;;;;21.90;51.45;94918.16;1040564;28;1104;-72
2021/08/06 02:44:37;;;;;;;;;;;;;;;21.90;51.49;94918.16;1043533;28;2324;-70
2021/08/06 02:45:08;;;;;;;;;;;;;;;21.91;51.47;94922.34;1041331;28;2251;-70
2021/08/06 02:45:38;;;;;;;;;;;;;;;21.91;51.63;94921.59;1041022;28;2529;-71
2021/08/06 02:46:09;;;;;;;;;;;;;;;21.91;51.69;94922.34;1042316;28;2248;-70
2021/08/06 02:46:39;;;;;;;;;;;;;;;21.90;51.78;94918.16;1044026;28;1384;-71